Time;durP1;ratioP1;P1;durP2;ratioP2;P2;SDS_P1;SDS_P2;PMS_P1;PMS_P2;Temp;Humidity;BMP_temperature;BMP_pressure;BME280_temperature;BME280_humidity;BME280_pressure;Samples;Min_cycle;Max_cycle;Signal;HPM_P1;HPM_P2
2021/12/05 00:19:14;;;;;;;23.05;3.35;;;4.70;99.90;;;;;;5154845;27;20046;-67
2021/12/05 00:21:41;;;;;;;8.80;3.28;;;4.80;99.90;;;;;;5133026;27;20133;-66
2021/12/05 00:24:14;;;;;;;16.20;3.33;;;4.80;99.90;;;;;;5155422;27;20039;-67
2021/12/05 00:26:42;;;;;;;9.65;3.20;;;4.80;99.90;;;;;;5113398;27;20060;-67
2021/12/05 00:29:15;;;;;;;13.30;2.70;;;4.80;99.90;;;;;;5134126;27;20166;-67
2021/12/05 00:31:59;;;;;;;10.30;2.85;;;4.80;99.90;;;;;;5126733;27;20517;-67
2021/12/05 00:34:48;;;;;;;;;;;4.80;99.90;;;;;;5134225;27;20050;-67
2021/12/05 00:40:39;;;;;;;11.25;2.92;;;4.80;99.90;;;;;;5151614;27;20047;-67
2021/12/05 00:43:30;;;;;;;11.18;3.65;;;4.80;99.90;;;;;;5154082;27;20123;-67
2021/12/05 00:46:01;;;;;;;12.15;3.47;;;4.80;99.90;;;;;;5139635;27;20050;-67
2021/12/05 00:48:49;;;;;;;18.05;3.00;;;4.80;99.90;;;;;;5149508;27;20100;-67
2021/12/05 00:54:43;;;;;;;7.53;3.20;;;4.90;99.90;;;;;;5152653;27;20053;-67
2021/12/05 01:02:48;;;;;;;10.82;3.83;;;4.90;99.90;;;;;;5132944;27;20111;-67
2021/12/05 01:08:04;;;;;;;9.32;2.40;;;5.00;99.90;;;;;;5114794;27;20142;-67
2021/12/05 01:15:43;;;;;;;10.35;2.13;;;5.00;99.90;;;;;;5153659;27;20056;-67
2021/12/05 01:18:13;;;;;;;7.13;2.30;;;5.00;99.90;;;;;;5149827;27;20046;-68
2021/12/05 01:20:43;;;;;;;8.77;3.15;;;5.00;99.90;;;;;;5153988;27;20147;-67
2021/12/05 01:23:22;;;;;;;9.07;2.90;;;5.00;99.90;;;;;;5131723;27;20038;-67
2021/12/05 01:26:03;;;;;;;8.15;2.92;;;5.00;99.90;;;;;;5153881;27;20122;-67
2021/12/05 01:28:57;;;;;;;9.23;3.22;;;5.00;99.90;;;;;;5134784;27;20107;-67
2021/12/05 01:34:17;;;;;;;5.07;2.47;;;4.90;99.90;;;;;;5147374;27;20047;-67
2021/12/05 01:50:43;;;;;;;10.30;4.28;;;5.10;99.90;;;;;;5135857;27;20425;-67
2021/12/05 02:36:50;;;;;;;14.38;4.25;;;4.70;99.90;;;;;;5135954;27;20389;-67
2021/12/05 02:39:27;;;;;;;9.80;4.97;;;4.70;99.90;;;;;;5121985;27;20058;-67
2021/12/05 02:41:54;;;;;;;10.98;4.90;;;4.70;99.90;;;;;;5152861;27;20042;-67
2021/12/05 02:44:25;;;;;;;18.58;5.57;;;4.70;99.90;;;;;;5153264;27;20038;-66
2021/12/05 02:47:10;;;;;;;12.60;4.50;;;4.60;99.90;;;;;;5149901;27;20051;-67
2021/12/05 02:49:41;;;;;;;14.77;4.93;;;4.60;99.90;;;;;;5123650;28;20040;-67
2021/12/05 02:52:10;;;;;;;13.88;4.68;;;4.60;99.90;;;;;;5093621;28;20043;-67
2021/12/05 02:54:41;;;;;;;16.23;4.93;;;4.60;99.90;;;;;;5092877;27;20127;-67
2021/12/05 02:57:08;;;;;;;14.20;5.07;;;4.60;99.90;;;;;;5113558;28;20122;-67
2021/12/05 03:02:06;;;;;;;19.60;6.65;;;4.60;99.90;;;;;;5131821;28;20466;-67
2021/12/05 03:04:33;;;;;;;24.15;6.88;;;4.50;99.90;;;;;;5114237;27;20497;-67
2021/12/05 03:07:04;;;;;;;13.65;5.97;;;4.60;99.90;;;;;;5152264;27;20038;-67
2021/12/05 03:09:29;;;;;;;12.18;6.53;;;4.60;99.90;;;;;;5129110;27;20436;-67
2021/12/05 03:11:55;;;;;;;14.38;6.25;;;4.60;99.90;;;;;;5134227;27;20131;-67
2021/12/05 03:14:22;;;;;;;17.45;7.53;;;4.50;99.90;;;;;;5135745;27;20058;-67
2021/12/05 03:16:48;;;;;;;14.07;6.97;;;4.50;99.90;;;;;;5142736;27;20047;-67
2021/12/05 03:19:16;;;;;;;22.88;8.75;;;4.60;99.90;;;;;;5156577;27;20499;-67
2021/12/05 03:21:44;;;;;;;18.17;7.38;;;4.50;99.90;;;;;;5133685;27;20050;-67
2021/12/05 03:24:11;;;;;;;18.42;6.22;;;4.60;99.90;;;;;;5156418;27;20130;-66
2021/12/05 03:26:39;;;;;;;13.77;7.38;;;4.60;99.90;;;;;;5156332;27;20057;-67
2021/12/05 03:29:07;;;;;;;17.83;8.25;;;4.60;99.90;;;;;;5137040;27;20074;-67
2021/12/05 03:31:34;;;;;;;14.65;7.85;;;4.60;99.90;;;;;;5134786;27;20134;-67
2021/12/05 03:34:00;;;;;;;15.98;7.55;;;4.50;99.90;;;;;;5135533;27;20487;-68
2021/12/05 03:36:27;;;;;;;18.10;7.75;;;4.60;99.90;;;;;;5116191;27;20047;-67
2021/12/05 03:38:53;;;;;;;17.75;7.88;;;4.50;99.90;;;;;;5150986;27;20046;-67
2021/12/05 03:41:19;;;;;;;10.32;7.07;;;4.50;99.90;;;;;;5137819;27;20477;-67
2021/12/05 03:43:47;;;;;;;12.70;7.28;;;4.50;99.90;;;;;;5155624;27;20076;-67
2021/12/05 03:46:13;;;;;;;20.08;8.15;;;4.40;99.90;;;;;;5151594;27;20042;-67
2021/12/05 03:48:45;;;;;;;12.05;7.13;;;4.40;99.90;;;;;;5151490;27;20375;-67
2021/12/05 03:51:14;;;;;;;17.13;8.48;;;4.40;99.90;;;;;;5116000;27;20084;-67
2021/12/05 03:53:39;;;;;;;35.40;9.23;;;4.40;99.90;;;;;;5135114;27;20054;-67
2021/12/05 03:56:08;;;;;;;19.95;9.07;;;4.40;99.90;;;;;;5150101;27;20027;-67
2021/12/05 03:58:35;;;;;;;21.42;9.50;;;4.40;99.90;;;;;;5153047;27;20156;-67
2021/12/05 04:01:02;;;;;;;21.65;8.88;;;4.30;99.90;;;;;;5155690;27;20130;-67
2021/12/05 04:03:30;;;;;;;17.20;9.68;;;4.30;99.90;;;;;;5151506;27;20050;-67
2021/12/05 04:05:57;;;;;;;20.00;10.38;;;4.30;99.90;;;;;;5155183;27;20043;-67
2021/12/05 04:08:25;;;;;;;18.08;8.88;;;4.30;99.90;;;;;;5117494;27;20135;-67
2021/12/05 04:10:54;;;;;;;16.40;7.97;;;4.30;99.90;;;;;;5154729;27;20043;-66
2021/12/05 04:13:20;;;;;;;21.23;9.82;;;4.30;99.90;;;;;;5137063;27;20538;-67
2021/12/05 04:15:49;;;;;;;20.98;9.20;;;4.30;99.90;;;;;;5152885;27;20172;-67
2021/12/05 04:18:14;;;;;;;24.38;9.00;;;4.20;99.90;;;;;;5154588;27;20042;-67
2021/12/05 04:20:40;;;;;;;18.73;8.90;;;4.20;99.90;;;;;;5152453;27;20122;-67
2021/12/05 04:23:06;;;;;;;20.77;9.30;;;4.20;99.90;;;;;;5133660;27;20039;-67
2021/12/05 04:25:37;;;;;;;21.67;9.30;;;4.20;99.90;;;;;;5141186;27;20053;-67
2021/12/05 04:28:05;;;;;;;22.05;9.73;;;4.20;99.90;;;;;;5155012;27;20423;-67
2021/12/05 04:30:32;;;;;;;20.38;9.93;;;4.10;99.90;;;;;;5116247;27;20570;-67
2021/12/05 04:32:58;;;;;;;23.30;9.30;;;4.10;99.90;;;;;;5133980;27;20044;-67
2021/12/05 04:35:24;;;;;;;26.05;9.82;;;4.10;99.90;;;;;;5116121;27;20098;-67
2021/12/05 04:37:50;;;;;;;26.38;11.07;;;4.10;99.90;;;;;;5135873;27;20053;-67
2021/12/05 04:40:16;;;;;;;22.40;11.57;;;4.10;99.90;;;;;;5111439;28;20079;-66
2021/12/05 04:42:42;;;;;;;27.13;11.68;;;4.10;99.90;;;;;;5113488;27;20172;-67
2021/12/05 04:45:15;;;;;;;27.02;11.93;;;4.10;99.90;;;;;;5126955;27;20035;-67
2021/12/05 04:47:41;;;;;;;24.87;11.80;;;4.10;99.90;;;;;;5134109;27;20071;-67
2021/12/05 04:50:08;;;;;;;29.95;11.85;;;4.10;99.90;;;;;;5134121;27;20305;-67
2021/12/05 04:52:33;;;;;;;29.25;12.95;;;4.10;99.90;;;;;;5138071;27;20038;-67
2021/12/05 04:54:59;;;;;;;30.15;12.77;;;4.20;99.90;;;;;;5135992;27;20390;-67
2021/12/05 04:57:25;;;;;;;25.40;11.82;;;4.20;99.90;;;;;;5154473;27;20477;-67
2021/12/05 04:59:52;;;;;;;28.60;12.85;;;4.30;99.90;;;;;;5135216;27;20046;-66
2021/12/05 05:02:18;;;;;;;41.63;15.77;;;4.20;99.90;;;;;;5149905;27;20078;-67
2021/12/05 05:04:49;;;;;;;44.42;13.95;;;4.30;99.90;;;;;;5154397;27;20034;-67
2021/12/05 05:07:24;;;;;;;32.22;12.52;;;4.30;99.90;;;;;;5135062;27;20417;-67
2021/12/05 05:09:53;;;;;;;35.13;12.45;;;4.30;99.90;;;;;;5154253;27;20142;-67
2021/12/05 05:12:20;;;;;;;31.05;13.98;;;4.30;99.90;;;;;;5138514;27;20031;-67
2021/12/05 05:14:46;;;;;;;32.85;14.88;;;4.30;99.90;;;;;;5133010;27;20456;-66
2021/12/05 05:17:12;;;;;;;30.00;13.38;;;4.40;99.90;;;;;;5126360;27;20489;-67
2021/12/05 05:20:00;;;;;;;33.47;13.35;;;4.40;99.90;;;;;;5135683;27;20047;-67
2021/12/05 05:23:01;;;;;;;40.33;13.45;;;4.40;99.90;;;;;;5134874;27;20613;-67
2021/12/05 05:28:35;;;;;;;32.42;13.18;;;4.40;99.90;;;;;;5109701;27;20055;-67
2021/12/05 05:39:39;;;;;;;35.53;14.35;;;4.40;99.90;;;;;;5130261;27;20054;-67
2021/12/05 05:42:46;;;;;;;49.67;15.77;;;4.40;99.90;;;;;;5113728;27;20123;-66
2021/12/05 05:50:07;;;;;;;37.42;13.27;;;4.40;99.90;;;;;;5117694;27;20817;-67
2021/12/05 05:52:33;;;;;;;31.77;13.45;;;4.40;99.90;;;;;;5135021;27;20045;-67
2021/12/05 05:55:00;;;;;;;34.92;14.80;;;4.40;99.90;;;;;;5153681;27;20074;-67
2021/12/05 05:57:32;;;;;;;27.63;12.32;;;4.40;99.90;;;;;;5153354;27;20038;-67
2021/12/05 06:00:14;;;;;;;26.63;13.30;;;4.40;99.90;;;;;;5148135;27;20093;-67
2021/12/05 06:05:27;;;;;;;44.28;14.73;;;4.40;99.90;;;;;;5151741;27;20051;-67
2021/12/05 06:07:53;;;;;;;34.20;13.45;;;4.40;99.90;;;;;;5153469;27;20453;-67
2021/12/05 06:10:22;;;;;;;38.60;14.82;;;4.40;99.90;;;;;;5139949;27;20051;-67
2021/12/05 06:12:49;;;;;;;36.03;14.95;;;4.40;99.90;;;;;;5133080;27;20054;-67
2021/12/05 06:15:17;;;;;;;35.92;13.75;;;4.40;99.90;;;;;;5131401;27;20043;-67
2021/12/05 06:17:43;;;;;;;26.60;12.88;;;4.40;99.90;;;;;;5150518;27;20070;-67
2021/12/05 06:20:15;;;;;;;35.83;13.00;;;4.40;99.90;;;;;;5153995;27;20038;-67
2021/12/05 06:22:42;;;;;;;24.48;11.63;;;4.40;99.90;;;;;;5141770;27;20130;-67
2021/12/05 06:25:12;;;;;;;39.63;13.23;;;4.40;99.90;;;;;;5129761;27;20583;-67
2021/12/05 06:27:38;;;;;;;27.95;12.07;;;4.40;99.90;;;;;;5131755;27;20482;-67
2021/12/05 06:30:10;;;;;;;28.10;12.23;;;4.30;99.90;;;;;;5133063;27;20087;-67
2021/12/05 06:38:07;;;;;;;26.05;11.88;;;4.30;99.90;;;;;;5111443;28;20131;-67
2021/12/05 06:43:06;;;;;;;27.75;11.65;;;4.20;99.90;;;;;;5129344;27;20090;-67
2021/12/05 06:48:17;;;;;;;27.27;12.38;;;4.20;99.90;;;;;;5155485;27;20542;-66
2021/12/05 06:50:42;;;;;;;30.98;12.77;;;4.20;99.90;;;;;;5117912;27;20082;-67
2021/12/05 06:53:08;;;;;;;34.22;12.85;;;4.20;99.90;;;;;;5135842;27;20070;-67
2021/12/05 06:55:34;;;;;;;35.63;14.35;;;4.20;99.90;;;;;;5116514;27;20047;-67
2021/12/05 06:58:00;;;;;;;36.88;14.27;;;4.20;99.90;;;;;;5117512;27;20070;-67
2021/12/05 07:00:28;;;;;;;32.53;12.80;;;4.20;99.90;;;;;;5135473;27;20071;-67
2021/12/05 07:02:53;;;;;;;28.40;12.15;;;4.20;99.90;;;;;;5129795;27;20517;-67
2021/12/05 07:05:40;;;;;;;26.98;13.27;;;4.20;99.90;;;;;;5132837;27;20086;-66
2021/12/05 07:08:08;;;;;;;31.45;12.15;;;4.20;99.90;;;;;;5156294;27;20079;-67
2021/12/05 07:11:02;;;;;;;33.83;12.57;;;4.20;99.90;;;;;;5123816;27;20130;-67
2021/12/05 07:42:46;;;;;;;31.60;12.70;;;4.10;99.90;;;;;;5134681;27;20058;-67
2021/12/05 07:45:19;;;;;;;25.58;12.02;;;4.10;99.90;;;;;;5133326;27;20039;-67
2021/12/05 07:47:45;;;;;;;27.25;10.20;;;4.10;99.90;;;;;;5135188;27;20059;-67
2021/12/05 07:50:13;;;;;;;29.15;10.93;;;4.10;99.90;;;;;;5134534;27;20043;-67
2021/12/05 07:52:46;;;;;;;29.95;11.30;;;4.10;99.90;;;;;;5123704;27;20045;-66
2021/12/05 07:55:20;;;;;;;20.55;10.55;;;4.20;99.90;;;;;;5155467;27;20382;-67
2021/12/05 08:00:26;;;;;;;28.92;12.77;;;4.20;99.90;;;;;;5145131;27;20046;-66
2021/12/05 08:16:34;;;;;;;26.00;10.10;;;4.20;99.90;;;;;;5154911;27;20054;-67
2021/12/05 08:19:00;;;;;;;25.27;11.07;;;4.20;99.90;;;;;;5152742;27;20497;-67
2021/12/05 08:21:25;;;;;;;24.30;10.38;;;4.30;99.90;;;;;;5155401;27;20035;-66
2021/12/05 08:23:51;;;;;;;20.65;9.45;;;4.30;99.90;;;;;;5152079;27;20047;-67
2021/12/05 08:26:22;;;;;;;23.25;11.45;;;4.30;99.90;;;;;;5136327;27;20635;-68
2021/12/05 08:34:24;;;;;;;24.65;10.00;;;4.30;99.90;;;;;;5131519;27;20043;-67
2021/12/05 08:42:50;;;;;;;31.98;11.23;;;4.40;99.90;;;;;;5105316;27;20054;-67
2021/12/05 08:45:39;;;;;;;18.75;9.45;;;4.40;99.90;;;;;;5132201;27;20107;-67
2021/12/05 09:26:41;;;;;;;25.52;11.27;;;4.70;99.90;;;;;;5133156;27;20577;-67
2021/12/05 10:01:57;;;;;;;24.23;11.77;;;4.80;99.90;;;;;;5153217;27;20126;-67
2021/12/05 10:38:09;;;;;;;31.23;14.05;;;4.90;99.90;;;;;;5117458;27;20084;-66
2021/12/05 10:40:47;;;;;;;29.25;13.05;;;4.90;99.90;;;;;;5108213;27;20092;-66
2021/12/05 10:43:16;;;;;;;27.63;14.35;;;4.90;99.90;;;;;;5157192;27;20493;-67
2021/12/05 10:45:54;;;;;;;27.38;12.70;;;4.90;99.90;;;;;;5136725;27;20043;-67
2021/12/05 10:48:32;;;;;;;22.85;14.15;;;4.90;99.90;;;;;;5132562;27;20043;-66
2021/12/05 10:51:09;;;;;;;26.95;13.30;;;4.90;99.90;;;;;;5135859;27;20039;-67
2021/12/05 10:53:51;;;;;;;30.20;13.65;;;5.00;99.90;;;;;;5136457;27;20047;-67
2021/12/05 10:56:25;;;;;;;27.25;13.68;;;5.00;99.90;;;;;;5115914;27;20052;-67
2021/12/05 10:59:02;;;;;;;23.27;13.25;;;5.00;99.90;;;;;;5156651;27;20055;-67
2021/12/05 11:01:51;;;;;;;28.55;13.23;;;5.00;99.90;;;;;;5138493;27;20051;-67
2021/12/05 11:04:21;;;;;;;25.05;13.25;;;5.00;99.90;;;;;;5106054;27;20142;-66
2021/12/05 11:06:52;;;;;;;21.30;12.57;;;5.00;99.90;;;;;;5135447;27;20126;-66
2021/12/05 11:09:27;;;;;;;28.02;14.30;;;5.00;99.90;;;;;;5128820;27;20381;-67
2021/12/05 11:12:08;;;;;;;27.90;15.10;;;5.00;99.90;;;;;;5137908;27;20086;-67
2021/12/05 11:14:37;;;;;;;24.55;12.75;;;5.00;99.90;;;;;;5145621;27;20895;-67
2021/12/05 11:17:08;;;;;;;27.63;13.98;;;5.00;99.90;;;;;;5156520;27;20042;-67
2021/12/05 11:19:46;;;;;;;26.65;14.80;;;5.00;99.90;;;;;;5133013;27;20477;-67
2021/12/05 11:22:17;;;;;;;27.17;15.07;;;5.00;99.90;;;;;;5116218;27;20051;-67
2021/12/05 11:24:54;;;;;;;28.52;14.32;;;5.00;99.90;;;;;;5128370;27;20046;-66
2021/12/05 11:27:29;;;;;;;27.27;15.40;;;5.00;99.90;;;;;;5155359;27;20158;-67
2021/12/05 11:30:00;;;;;;;35.63;14.60;;;5.00;99.90;;;;;;5128008;27;20101;-67
2021/12/05 11:32:38;;;;;;;21.60;12.85;;;5.00;99.90;;;;;;5116406;27;20133;-67
2021/12/05 11:35:27;;;;;;;23.35;12.57;;;5.00;99.90;;;;;;5135158;27;20050;-67
2021/12/05 11:38:00;;;;;;;25.42;14.15;;;5.00;99.90;;;;;;5133060;27;20070;-66
2021/12/05 11:40:51;;;;;;;36.88;14.13;;;5.00;99.90;;;;;;5153451;27;20061;-67
2021/12/05 11:43:27;;;;;;;32.65;11.80;;;5.00;99.90;;;;;;5105886;27;20137;-67
2021/12/05 11:46:07;;;;;;;24.88;13.52;;;5.00;99.90;;;;;;5115367;27;20059;-67
2021/12/05 11:48:53;;;;;;;27.05;14.75;;;5.10;99.90;;;;;;5149522;27;20066;-67
2021/12/05 11:51:36;;;;;;;23.70;13.60;;;5.10;99.90;;;;;;5135145;27;20549;-67
2021/12/05 11:54:08;;;;;;;28.73;14.47;;;5.10;99.90;;;;;;5135380;27;20039;-67
2021/12/05 11:56:39;;;;;;;26.45;13.57;;;5.10;99.90;;;;;;5119406;27;20308;-67
2021/12/05 11:59:21;;;;;;;25.80;14.05;;;5.10;99.90;;;;;;5155863;27;20080;-67
2021/12/05 12:01:50;;;;;;;24.70;13.52;;;5.10;99.90;;;;;;5155213;27;20038;-67
2021/12/05 12:04:19;;;;;;;28.30;14.02;;;5.20;99.90;;;;;;5139758;27;20133;-67
2021/12/05 12:07:03;;;;;;;28.00;12.60;;;5.20;99.90;;;;;;5155859;27;20053;-67
2021/12/05 12:09:29;;;;;;;27.98;13.88;;;5.20;99.90;;;;;;5126171;27;20046;-67
2021/12/05 12:11:55;;;;;;;27.45;15.65;;;5.20;99.90;;;;;;5155737;27;20050;-67
2021/12/05 12:14:20;;;;;;;21.08;12.13;;;5.20;99.90;;;;;;5136912;27;20037;-67
2021/12/05 12:16:48;;;;;;;24.40;12.57;;;5.20;99.90;;;;;;5154988;27;20042;-67
2021/12/05 12:19:15;;;;;;;26.13;12.85;;;5.20;99.90;;;;;;5113415;27;20490;-67
2021/12/05 12:21:42;;;;;;;28.75;13.35;;;5.20;99.90;;;;;;5116058;27;20101;-67
2021/12/05 12:24:10;;;;;;;26.10;11.70;;;5.20;99.90;;;;;;5133117;27;20122;-66
2021/12/05 12:26:37;;;;;;;21.77;11.55;;;5.20;99.90;;;;;;5134912;27;20063;-67
2021/12/05 12:29:04;;;;;;;20.15;11.77;;;5.20;99.90;;;;;;5116186;27;20051;-67
2021/12/05 12:31:35;;;;;;;24.58;14.07;;;5.20;99.90;;;;;;5140287;27;20046;-66
2021/12/05 12:34:21;;;;;;;20.98;11.98;;;5.30;99.90;;;;;;5125080;27;20126;-67
2021/12/05 12:36:53;;;;;;;21.73;12.45;;;5.30;99.90;;;;;;5139911;27;20051;-67
2021/12/05 12:39:20;;;;;;;18.48;11.68;;;5.30;99.90;;;;;;5115849;27;20058;-67
2021/12/05 12:42:33;;;;;;;19.08;11.65;;;5.30;99.90;;;;;;5106070;27;20100;-67
2021/12/05 12:45:16;;;;;;;22.00;13.13;;;5.30;99.90;;;;;;5117968;27;20050;-67
2021/12/05 12:47:54;;;;;;;19.10;12.88;;;5.30;99.90;;;;;;5115717;27;20058;-67
2021/12/05 12:50:34;;;;;;;24.27;12.73;;;5.30;99.90;;;;;;5146134;27;20050;-67
2021/12/05 12:53:11;;;;;;;22.63;12.95;;;5.30;99.90;;;;;;5154565;27;20052;-67
2021/12/05 12:55:39;;;;;;;24.60;13.13;;;5.30;99.90;;;;;;5155064;27;20047;-67
2021/12/05 12:58:07;;;;;;;32.38;15.18;;;5.30;99.90;;;;;;5119377;27;20054;-67
2021/12/05 13:00:41;;;;;;;18.90;11.88;;;5.30;99.90;;;;;;5154836;27;20053;-67
2021/12/05 13:03:26;;;;;;;31.25;13.05;;;5.30;99.90;;;;;;5135738;27;20050;-67
2021/12/05 13:11:51;;;;;;;33.63;17.02;;;5.30;99.90;;;;;;5148351;27;20466;-67
2021/12/05 13:14:18;;;;;;;24.25;12.88;;;5.40;99.90;;;;;;5110789;27;20086;-67
2021/12/05 13:16:45;;;;;;;26.80;13.80;;;5.40;99.90;;;;;;5132914;27;20080;-67
2021/12/05 13:19:16;;;;;;;25.17;13.63;;;5.40;99.90;;;;;;5153110;27;20125;-67
2021/12/05 13:21:45;;;;;;;25.25;16.10;;;5.40;99.90;;;;;;5135699;27;20054;-67
2021/12/05 13:24:17;;;;;;;29.10;13.35;;;5.50;99.90;;;;;;5120745;27;20043;-67
2021/12/05 13:26:43;;;;;;;22.67;13.33;;;5.40;99.90;;;;;;5137317;27;20050;-67
2021/12/05 13:29:17;;;;;;;29.30;12.90;;;5.50;99.90;;;;;;5154005;27;20333;-67
2021/12/05 13:31:45;;;;;;;22.50;12.43;;;5.40;99.90;;;;;;5154122;27;20058;-67
2021/12/05 13:34:21;;;;;;;20.48;12.73;;;5.50;99.90;;;;;;5153500;27;20050;-67
2021/12/05 13:36:51;;;;;;;23.70;13.35;;;5.50;99.90;;;;;;5137575;27;20047;-67
2021/12/05 13:39:37;;;;;;;21.73;13.15;;;5.50;99.90;;;;;;5134129;27;20050;-67
2021/12/05 13:42:19;;;;;;;23.88;13.55;;;5.50;99.90;;;;;;5120372;27;20050;-67
2021/12/05 13:45:00;;;;;;;27.83;14.35;;;5.50;99.90;;;;;;5135293;27;20718;-67
2021/12/05 13:47:52;;;;;;;19.25;12.73;;;5.50;99.90;;;;;;5144152;27;20443;-67
2021/12/05 13:50:30;;;;;;;23.60;12.63;;;5.50;99.90;;;;;;5123751;27;20501;-67
2021/12/05 13:52:58;;;;;;;18.67;12.38;;;5.50;99.90;;;;;;5133050;27;20489;-67
2021/12/05 13:55:36;;;;;;;21.15;12.05;;;5.50;99.90;;;;;;5116512;27;20378;-67
2021/12/05 13:58:28;;;;;;;18.17;11.95;;;5.50;99.90;;;;;;5134754;27;20078;-67
2021/12/05 14:00:56;;;;;;;23.08;12.80;;;5.60;99.90;;;;;;5149968;27;20501;-67
2021/12/05 14:03:38;;;;;;;23.92;13.32;;;5.60;99.90;;;;;;5143920;27;20138;-67
2021/12/05 14:06:30;;;;;;;25.35;12.15;;;5.50;99.90;;;;;;5134814;27;20047;-67
2021/12/05 14:09:02;;;;;;;21.55;10.52;;;5.60;99.90;;;;;;5153142;27;20042;-67
2021/12/05 14:11:28;;;;;;;22.20;11.30;;;5.60;99.90;;;;;;5139191;27;20371;-67
2021/12/05 14:13:54;;;;;;;22.33;10.25;;;5.60;99.90;;;;;;5105148;28;20040;-67
2021/12/05 14:16:28;;;;;;;21.05;11.35;;;5.60;99.90;;;;;;5132214;27;20043;-67
2021/12/05 14:18:54;;;;;;;14.73;10.68;;;5.60;99.90;;;;;;5130431;27;20031;-67
2021/12/05 14:21:20;;;;;;;23.92;11.88;;;5.60;99.90;;;;;;5113739;28;20494;-67
2021/12/05 14:23:56;;;;;;;25.45;11.63;;;5.60;99.90;;;;;;5132121;28;20043;-67
2021/12/05 14:26:26;;;;;;;22.40;11.07;;;5.60;99.90;;;;;;5127847;27;20060;-67
2021/12/05 14:28:59;;;;;;;20.27;10.88;;;5.50;99.90;;;;;;5127152;27;20054;-67
2021/12/05 14:31:30;;;;;;;25.52;11.73;;;5.60;99.90;;;;;;5134724;27;20099;-67
2021/12/05 14:33:56;;;;;;;18.15;11.15;;;5.60;99.90;;;;;;5150738;27;20042;-67
2021/12/05 14:36:29;;;;;;;18.42;11.20;;;5.60;99.90;;;;;;5142611;27;20047;-68
2021/12/05 14:39:50;;;;;;;21.58;11.60;;;5.50;99.90;;;;;;5114060;28;20059;-68
2021/12/05 14:42:19;;;;;;;22.92;11.05;;;5.60;99.90;;;;;;5094332;28;20074;-67
2021/12/05 14:44:56;;;;;;;19.58;11.30;;;5.50;99.90;;;;;;5146792;27;20074;-67
2021/12/05 14:47:25;;;;;;;20.83;10.00;;;5.60;99.90;;;;;;5153005;27;20043;-67
2021/12/05 14:49:54;;;;;;;26.30;13.65;;;5.50;99.90;;;;;;5137597;27;20044;-67
2021/12/05 14:52:23;;;;;;;28.13;14.20;;;5.50;99.90;;;;;;5151924;27;20099;-68
2021/12/05 14:54:49;;;;;;;26.00;14.43;;;5.60;99.90;;;;;;5115261;27;20389;-67
2021/12/05 14:57:28;;;;;;;24.60;13.38;;;5.50;99.90;;;;;;5131362;27;20051;-67
2021/12/05 15:00:10;;;;;;;21.00;10.82;;;5.60;99.90;;;;;;5132041;28;20055;-67
2021/12/05 15:02:36;;;;;;;33.00;12.82;;;5.60;99.90;;;;;;5113842;28;20104;-67
2021/12/05 15:05:03;;;;;;;26.98;14.02;;;5.50;99.90;;;;;;5129505;27;20051;-67
2021/12/05 15:07:29;;;;;;;26.95;13.00;;;5.60;99.90;;;;;;5132526;27;20076;-67
2021/12/05 15:09:57;;;;;;;25.45;12.95;;;5.50;99.90;;;;;;5135769;27;20086;-67
2021/12/05 15:12:25;;;;;;;21.85;13.63;;;5.50;99.90;;;;;;5118349;27;20054;-67
2021/12/05 15:14:54;;;;;;;24.85;13.43;;;5.60;99.90;;;;;;5156779;27;20049;-67
2021/12/05 15:17:23;;;;;;;18.83;13.00;;;5.50;99.90;;;;;;5155518;27;20035;-67
2021/12/05 15:19:55;;;;;;;30.65;16.73;;;5.50;99.90;;;;;;5116056;27;20406;-67
2021/12/05 15:22:21;;;;;;;28.92;17.85;;;5.50;99.90;;;;;;5117416;27;20083;-67
2021/12/05 15:24:55;;;;;;;26.73;14.52;;;5.50;99.90;;;;;;5135660;27;20426;-67
2021/12/05 15:27:24;;;;;;;31.73;16.30;;;5.50;99.90;;;;;;5142843;27;20136;-67
2021/12/05 15:29:58;;;;;;;22.27;13.27;;;5.50;99.90;;;;;;5156197;27;20074;-67
2021/12/05 15:32:27;;;;;;;24.80;15.32;;;5.50;99.90;;;;;;5155665;27;20053;-67
2021/12/05 15:34:57;;;;;;;31.30;14.73;;;5.50;99.90;;;;;;5156391;27;20111;-67
2021/12/05 15:37:24;;;;;;;24.30;15.02;;;5.50;99.90;;;;;;5142980;27;20046;-67
2021/12/05 15:39:52;;;;;;;33.25;16.30;;;5.50;99.90;;;;;;5133951;27;20864;-67
2021/12/05 15:42:23;;;;;;;42.45;21.98;;;5.50;99.90;;;;;;5147118;27;20054;-67
2021/12/05 15:44:52;;;;;;;28.77;17.90;;;5.50;99.90;;;;;;5153250;27;20065;-67
2021/12/05 15:47:24;;;;;;;27.83;16.08;;;5.50;99.90;;;;;;5146561;27;20073;-67
2021/12/05 15:49:54;;;;;;;25.75;15.70;;;5.50;99.90;;;;;;5141196;27;20509;-67
2021/12/05 15:52:29;;;;;;;23.15;16.42;;;5.50;99.90;;;;;;5134107;27;20050;-67
2021/12/05 15:54:56;;;;;;;28.23;14.95;;;5.50;99.90;;;;;;5112472;28;20043;-67
2021/12/05 15:57:33;;;;;;;26.02;15.48;;;5.50;99.90;;;;;;5114480;28;20493;-67
2021/12/05 16:00:06;;;;;;;28.95;14.13;;;5.50;99.90;;;;;;5106186;27;20039;-67
2021/12/05 16:02:32;;;;;;;23.05;14.88;;;5.50;99.90;;;;;;5129780;27;20057;-67
2021/12/05 16:04:58;;;;;;;24.42;15.52;;;5.50;99.90;;;;;;5116336;27;20496;-67
2021/12/05 16:07:27;;;;;;;22.90;13.68;;;5.50;99.90;;;;;;5132700;27;20551;-67
2021/12/05 16:10:08;;;;;;;30.20;16.10;;;5.40;99.90;;;;;;5134363;27;20561;-67
2021/12/05 16:12:39;;;;;;;31.13;16.15;;;5.50;99.90;;;;;;5144625;27;20389;-67
2021/12/05 16:15:05;;;;;;;25.70;16.33;;;5.50;99.90;;;;;;5154532;27;20050;-67
2021/12/05 16:17:31;;;;;;;24.15;15.60;;;5.50;99.90;;;;;;5136869;27;20493;-67
2021/12/05 16:20:16;;;;;;;28.98;17.70;;;5.50;99.90;;;;;;5135436;27;20050;-67
2021/12/05 16:23:14;;;;;;;37.28;16.00;;;5.50;99.90;;;;;;5137811;27;20039;-67
2021/12/05 16:25:44;;;;;;;24.00;16.25;;;5.50;99.90;;;;;;5116275;27;20047;-67
2021/12/05 16:28:14;;;;;;;26.48;17.08;;;5.50;99.90;;;;;;5115972;27;20470;-67
2021/12/05 16:30:47;;;;;;;32.38;16.63;;;5.50;99.90;;;;;;5115324;27;20051;-67
2021/12/05 16:33:18;;;;;;;24.45;17.52;;;5.50;99.90;;;;;;5115708;27;20047;-67
2021/12/05 16:35:49;;;;;;;32.85;18.80;;;5.40;99.90;;;;;;5133198;27;20423;-67
2021/12/05 16:38:30;;;;;;;29.70;16.40;;;5.40;99.90;;;;;;5148601;27;20042;-67
2021/12/05 16:41:01;;;;;;;29.73;18.73;;;5.50;99.90;;;;;;5152347;27;20141;-67
2021/12/05 16:43:27;;;;;;;30.42;17.02;;;5.50;99.90;;;;;;5154486;27;20042;-67
2021/12/05 16:46:13;;;;;;;32.30;17.23;;;5.50;99.90;;;;;;5131898;27;20038;-67
2021/12/05 16:48:41;;;;;;;29.33;18.45;;;5.50;99.90;;;;;;5152355;27;20382;-67
2021/12/05 16:51:22;;;;;;;30.88;17.98;;;5.50;99.90;;;;;;5153347;27;20562;-67
2021/12/05 16:53:51;;;;;;;35.58;20.05;;;5.40;99.90;;;;;;5154906;27;20423;-67
2021/12/05 16:56:38;;;;;;;35.95;20.63;;;5.50;99.90;;;;;;5152492;27;20095;-67
2021/12/05 16:59:07;;;;;;;36.88;21.42;;;5.50;99.90;;;;;;5133721;27;20047;-67
2021/12/05 17:01:33;;;;;;;36.50;21.38;;;5.50;99.90;;;;;;5133787;27;20444;-67
2021/12/05 17:03:58;;;;;;;34.22;19.88;;;5.40;99.90;;;;;;5133307;27;20068;-67
2021/12/05 17:06:24;;;;;;;35.38;20.30;;;5.40;99.90;;;;;;5126928;27;20507;-67
2021/12/05 17:08:50;;;;;;;35.22;21.50;;;5.40;99.90;;;;;;5147722;27;20137;-67
2021/12/05 17:11:18;;;;;;;36.72;21.35;;;5.40;99.90;;;;;;5133317;27;20054;-67
2021/12/05 17:13:47;;;;;;;42.92;23.10;;;5.50;99.90;;;;;;5113054;27;20095;-67
2021/12/05 17:16:17;;;;;;;36.03;21.42;;;5.40;99.90;;;;;;5111367;28;20126;-67
2021/12/05 17:18:46;;;;;;;39.22;22.05;;;5.40;99.90;;;;;;5112188;28;20169;-67
2021/12/05 17:21:21;;;;;;;40.83;25.45;;;5.40;99.90;;;;;;5113432;27;20115;-67
2021/12/05 17:23:54;;;;;;;33.28;20.17;;;5.40;99.90;;;;;;5154085;27;20095;-67
2021/12/05 17:26:28;;;;;;;40.75;22.75;;;5.40;99.90;;;;;;5153445;27;20117;-67
2021/12/05 17:29:17;;;;;;;34.90;21.20;;;5.40;99.90;;;;;;5146824;27;20161;-67
2021/12/05 17:31:55;;;;;;;37.42;20.80;;;5.40;99.90;;;;;;5110844;28;20134;-67
2021/12/05 17:34:24;;;;;;;41.60;21.70;;;5.40;99.90;;;;;;5112927;28;20048;-67
2021/12/05 17:37:02;;;;;;;36.42;23.35;;;5.40;99.90;;;;;;5133204;27;20051;-67
2021/12/05 17:39:31;;;;;;;43.92;24.02;;;5.40;99.90;;;;;;5105292;27;20070;-67
2021/12/05 17:42:03;;;;;;;39.05;21.80;;;5.40;99.90;;;;;;5134904;27;20051;-67
2021/12/05 17:44:29;;;;;;;33.33;21.42;;;5.40;99.90;;;;;;5153825;27;20054;-67
2021/12/05 17:46:58;;;;;;;41.50;24.40;;;5.40;99.90;;;;;;5153176;27;20050;-67
2021/12/05 17:49:26;;;;;;;42.25;26.45;;;5.40;99.90;;;;;;5140295;27;20081;-67
2021/12/05 17:51:52;;;;;;;44.03;26.95;;;5.40;99.90;;;;;;5114096;27;20406;-67
2021/12/05 17:54:50;;;;;;;34.92;23.77;;;5.40;99.90;;;;;;5115478;27;20040;-67
2021/12/05 17:57:14;;;;;;;35.15;22.45;;;5.40;99.90;;;;;;5131738;27;20067;-67
2021/12/05 18:02:43;;;;;;;35.00;21.73;;;5.40;99.90;;;;;;5111747;27;20055;-67
2021/12/05 18:05:18;;;;;;;32.55;20.38;;;5.40;99.90;;;;;;5139995;27;20126;-68
2021/12/05 18:07:44;;;;;;;36.08;19.58;;;5.40;99.90;;;;;;5152695;27;20039;-67